createdAt,value
2024-04-19T00:01:58.125Z,3.23
2024-04-19T00:05:01.009Z,3.20
2024-04-19T00:08:03.891Z,4.03
2024-04-19T00:11:06.611Z,3.85
2024-04-19T00:14:09.307Z,2.72
2024-04-19T00:17:13.916Z,3.07
2024-04-19T00:20:16.556Z,5.50
2024-04-19T00:23:39.122Z,5.30
2024-04-19T00:26:41.753Z,3.67
2024-04-19T00:29:45.868Z,3.00
2024-04-19T00:32:57.895Z,5.13
2024-04-19T00:36:07.235Z,3.20
2024-04-19T00:39:09.928Z,3.67
2024-04-19T00:42:12.665Z,4.45
2024-04-19T00:45:37.318Z,5.30
2024-04-19T00:48:41.674Z,3.87
2024-04-19T00:51:44.520Z,5.22
2024-04-19T00:54:47.260Z,4.53
2024-04-19T00:57:51.045Z,4.25
2024-04-19T01:00:54.975Z,3.03
2024-04-19T01:03:57.822Z,5.50
2024-04-19T01:07:00.525Z,4.72
2024-04-19T01:10:03.285Z,5.13
2024-04-19T01:13:06.057Z,5.83
2024-04-19T01:16:10.005Z,5.28
2024-04-19T01:19:27.564Z,5.97
2024-04-19T01:22:30.173Z,3.58
2024-04-19T01:25:39.363Z,4.33
2024-04-19T01:28:42.059Z,4.25
2024-04-19T01:31:44.704Z,6.57
2024-04-19T01:34:47.626Z,5.30
2024-04-19T01:37:50.857Z,5.80
2024-04-19T01:40:53.478Z,3.63
2024-04-19T01:43:56.163Z,3.85
2024-04-19T01:46:58.820Z,4.40
2024-04-19T01:50:01.508Z,2.05
2024-04-19T01:53:04.292Z,4.32
2024-04-19T01:56:07.051Z,5.07
2024-04-19T01:59:18.535Z,4.30
2024-04-19T02:02:22.201Z,4.53
2024-04-19T02:05:24.912Z,4.63
2024-04-19T02:08:27.666Z,4.63
2024-04-19T02:11:30.346Z,4.40
2024-04-19T02:14:35.126Z,3.17
2024-04-19T02:17:37.897Z,7.30
2024-04-19T02:20:40.677Z,3.37
2024-04-19T02:23:44.174Z,4.10
2024-04-19T02:26:53.091Z,3.88
2024-04-19T02:30:14.215Z,4.95
2024-04-19T02:33:17.121Z,4.23
2024-04-19T02:36:19.873Z,4.50
2024-04-19T02:39:22.624Z,4.35
2024-04-19T02:42:25.304Z,6.05
2024-04-19T02:45:28.073Z,5.93
2024-04-19T02:48:30.996Z,3.90
2024-04-19T02:51:33.762Z,5.82
2024-04-19T02:54:36.533Z,5.93
2024-04-19T02:57:39.252Z,5.20
2024-04-19T03:00:42.006Z,5.10
2024-04-19T03:03:45.007Z,4.40
2024-04-19T03:06:47.666Z,6.47
2024-04-19T03:09:50.431Z,6.53
2024-04-19T03:12:53.191Z,5.35
2024-04-19T03:16:04.472Z,4.88
2024-04-19T03:19:16.232Z,8.73
2024-04-19T03:22:19.679Z,3.70
2024-04-19T03:25:22.552Z,2.60
2024-04-19T03:28:25.183Z,4.05
2024-04-19T03:31:27.765Z,4.88
2024-04-19T03:34:30.506Z,4.13
2024-04-19T03:37:33.095Z,6.60
2024-04-19T03:40:36.185Z,4.20
2024-04-19T03:43:43.191Z,4.20
2024-04-19T03:46:45.881Z,7.00
2024-04-19T03:49:48.510Z,4.90
2024-04-19T03:52:51.139Z,5.85
2024-04-19T03:55:53.804Z,4.03
2024-04-19T03:58:56.434Z,5.68
2024-04-19T04:01:59.007Z,7.10
2024-04-19T04:05:01.674Z,4.63
2024-04-19T04:08:04.701Z,6.90
2024-04-19T04:11:12.632Z,6.78
2024-04-19T04:14:15.335Z,6.63
2024-04-19T04:17:17.995Z,4.88
2024-04-19T04:20:20.605Z,6.47
2024-04-19T04:23:23.279Z,9.33
2024-04-19T04:26:25.944Z,7.80
2024-04-19T04:29:30.515Z,7.85
2024-04-19T04:32:33.309Z,5.55
2024-04-19T04:35:40.204Z,8.73
2024-04-19T04:38:43.524Z,7.18
2024-04-19T04:41:46.122Z,8.38
2024-04-19T04:44:48.676Z,5.57
2024-04-19T04:47:51.809Z,6.05
2024-04-19T04:50:54.453Z,6.88
2024-04-19T04:53:57.755Z,5.53
2024-04-19T04:57:00.450Z,4.83
2024-04-19T05:00:04.028Z,6.35
2024-04-19T05:03:07.073Z,4.60
2024-04-19T05:06:09.749Z,6.35
2024-04-19T05:09:12.348Z,4.10
2024-04-19T05:12:15.001Z,3.78
2024-04-19T05:15:17.982Z,4.22
2024-04-19T05:18:20.801Z,4.50
2024-04-19T05:21:23.578Z,4.00
2024-04-19T05:24:26.370Z,5.78
2024-04-19T05:27:29.235Z,5.47
2024-04-19T05:30:32.110Z,3.87
2024-04-19T05:33:34.902Z,6.40
2024-04-19T05:36:37.760Z,4.40
2024-04-19T05:39:40.605Z,4.40
2024-04-19T05:42:43.333Z,4.60
2024-04-19T05:45:46.182Z,4.85
2024-04-19T05:48:49.919Z,3.47
2024-04-19T05:51:54.288Z,1.95
2024-04-19T05:54:57.077Z,2.07
2024-04-19T05:58:00.065Z,1.70
2024-04-19T06:01:03.052Z,1.35
2024-04-19T06:04:09.320Z,1.63
2024-04-19T06:07:12.337Z,3.93
2024-04-19T06:10:15.306Z,0.95
2024-04-19T06:13:18.048Z,2.47
2024-04-19T06:16:20.810Z,1.65
2024-04-19T06:19:23.872Z,2.90
2024-04-19T06:22:26.761Z,3.03
2024-04-19T06:25:29.568Z,1.83
2024-04-19T06:28:36.077Z,1.48
2024-04-19T06:31:39.915Z,2.42
2024-04-19T06:34:42.889Z,1.67
2024-04-19T06:37:48.383Z,1.40
2024-04-19T06:40:51.093Z,0.63
2024-04-19T06:43:53.789Z,2.83
2024-04-19T06:46:56.613Z,1.75
2024-04-19T06:49:59.578Z,2.00
2024-04-19T06:53:02.970Z,0.70
2024-04-19T06:56:08.355Z,1.77
2024-04-19T06:59:12.481Z,0.30
2024-04-19T07:02:15.408Z,1.95
2024-04-19T07:05:18.997Z,1.13
2024-04-19T07:08:21.760Z,1.23
2024-04-19T07:11:24.544Z,1.85
2024-04-19T07:14:27.307Z,0.88
2024-04-19T07:17:30.120Z,1.58
2024-04-19T07:20:33.279Z,0.97
2024-04-19T07:23:38.658Z,1.57
2024-04-19T07:26:41.439Z,1.15
2024-04-19T07:29:44.423Z,2.53
2024-04-19T07:32:47.346Z,0.60
2024-04-19T07:35:50.371Z,0.83
2024-04-19T07:38:54.090Z,1.50
2024-04-19T07:41:57.598Z,1.98
2024-04-19T07:45:01.042Z,1.58
2024-04-19T07:48:04.272Z,1.48
2024-04-19T07:51:07.074Z,1.77
2024-04-19T07:54:10.271Z,2.10
2024-04-19T07:57:14.270Z,1.00
2024-04-19T08:00:19.376Z,0.20
2024-04-19T08:03:23.689Z,0.95
2024-04-19T08:06:26.631Z,1.20
2024-04-19T08:09:29.478Z,1.13
2024-04-19T08:12:32.359Z,2.05
2024-04-19T08:15:36.258Z,1.17
2024-04-19T08:18:39.582Z,1.75
2024-04-19T08:21:42.485Z,0.73
2024-04-19T08:24:45.282Z,0.80
2024-04-19T08:27:48.143Z,0.20
2024-04-19T08:30:50.997Z,0.80
2024-04-19T08:33:54.554Z,2.30
2024-04-19T08:36:57.528Z,0.50
2024-04-19T08:40:01.149Z,0.83
2024-04-19T08:43:05.278Z,2.72
2024-04-19T08:46:09.730Z,1.38
2024-04-19T08:49:17.163Z,0.55
2024-04-19T08:52:48.832Z,1.07
2024-04-19T08:55:49.254Z,0.60
2024-04-19T08:58:55.247Z,0.10
2024-04-19T09:01:58.449Z,0.52
2024-04-19T09:05:02.626Z,0.50
2024-04-19T09:08:07.560Z,0.63
2024-04-19T09:11:14.113Z,1.13
2024-04-19T09:14:16.836Z,1.35
2024-04-19T09:17:19.835Z,0.30
2024-04-19T09:20:24.543Z,1.90
2024-04-19T09:23:27.519Z,1.00
2024-04-19T09:26:30.580Z,0.77
2024-04-19T09:29:34.041Z,1.25
2024-04-19T09:32:38.090Z,0.75
2024-04-19T09:35:41.472Z,0.90
2024-04-19T09:38:45.075Z,0.23
2024-04-19T09:41:49.572Z,0.67
2024-04-19T09:44:53.512Z,1.60
2024-04-19T09:47:59.082Z,1.27
2024-04-19T09:51:04.267Z,1.95
2024-04-19T09:54:13.866Z,0.83
2024-04-19T09:57:22.935Z,1.53
2024-04-19T10:00:31.419Z,0.47
2024-04-19T10:03:35.323Z,0.73
2024-04-19T10:06:42.740Z,1.17
2024-04-19T10:09:47.186Z,1.17
2024-04-19T10:12:50.674Z,0.80
2024-04-19T10:16:00.712Z,1.15
2024-04-19T10:19:03.859Z,1.30
2024-04-19T10:22:06.851Z,0.60
2024-04-19T10:25:14.287Z,0.70
2024-04-19T10:28:17.486Z,1.20
2024-04-19T10:31:24.079Z,0.57
2024-04-19T10:34:28.340Z,1.77
2024-04-19T10:37:30.982Z,0.88
2024-04-19T10:40:34.085Z,2.23
2024-04-19T10:43:45.762Z,1.53
2024-04-19T10:46:54.639Z,1.65
2024-04-19T10:49:58.855Z,0.50
2024-04-19T10:53:01.993Z,0.50
2024-04-19T10:56:08.168Z,2.00
2024-04-19T10:59:11.176Z,1.30
2024-04-19T11:02:14.220Z,0.82
2024-04-19T11:05:17.275Z,1.67
2024-04-19T11:08:21.280Z,0.77
2024-04-19T11:11:24.160Z,1.03
2024-04-19T11:14:27.480Z,1.00
2024-04-19T11:17:30.294Z,0.60
2024-04-19T11:20:33.095Z,1.52
2024-04-19T11:23:37.259Z,1.08
2024-04-19T11:26:40.467Z,1.83
2024-04-19T11:29:43.387Z,0.67
2024-04-19T11:32:47.238Z,1.45
2024-04-19T11:35:50.448Z,0.93
2024-04-19T11:38:54.153Z,4.60
2024-04-19T11:41:57.130Z,1.67
2024-04-19T11:45:03.757Z,1.07
2024-04-19T11:48:07.517Z,1.50
2024-04-19T11:51:12.897Z,3.67
2024-04-19T11:54:17.292Z,1.15
2024-04-19T11:57:20.062Z,1.73
2024-04-19T12:00:22.809Z,0.70
2024-04-19T12:03:25.723Z,1.40
2024-04-19T12:06:32.650Z,3.05
2024-04-19T12:09:35.717Z,1.85
2024-04-19T12:13:15.865Z,0.97
2024-04-19T12:16:31.933Z,1.67
2024-04-19T12:19:24.467Z,1.70
2024-04-19T12:22:29.084Z,3.03
2024-04-19T12:25:35.556Z,1.00
2024-04-19T12:28:45.526Z,1.83
2024-04-19T12:31:56.934Z,0.90
2024-04-19T12:34:59.667Z,1.88
2024-04-19T12:38:02.669Z,1.10
2024-04-19T12:41:05.382Z,1.77
2024-04-19T12:44:08.199Z,1.03
2024-04-19T12:47:11.154Z,1.63
2024-04-19T12:50:13.855Z,1.17
2024-04-19T12:53:17.014Z,1.80
2024-04-19T12:56:19.831Z,1.88
2024-04-19T12:59:23.299Z,2.07
2024-04-19T13:02:26.150Z,1.37
2024-04-19T13:05:30.807Z,2.13
2024-04-19T13:08:33.935Z,0.60
2024-04-19T13:11:36.684Z,1.92
2024-04-19T13:14:39.378Z,1.70
2024-04-19T13:17:43.991Z,1.03
2024-04-19T13:20:46.980Z,0.95
2024-04-19T13:23:49.647Z,1.38
2024-04-19T13:26:52.334Z,1.67
2024-04-19T13:29:55.820Z,1.43
2024-04-19T13:32:58.575Z,3.13
2024-04-19T13:36:01.343Z,0.75
2024-04-19T13:39:04.427Z,1.40
2024-04-19T13:42:07.311Z,1.75
2024-04-19T13:45:10.021Z,0.70
2024-04-19T13:48:13.243Z,0.40
2024-04-19T13:51:15.985Z,1.52
2024-04-19T13:54:18.788Z,1.75
2024-04-19T13:57:25.007Z,0.82
2024-04-19T14:00:28.196Z,0.90
2024-04-19T14:03:31.056Z,1.00
2024-04-19T14:06:34.286Z,0.57
2024-04-19T14:09:37.251Z,0.80
2024-04-19T14:12:40.398Z,2.72
2024-04-19T14:15:44.982Z,0.93
2024-04-19T14:18:47.711Z,0.90
2024-04-19T14:21:50.750Z,2.72
2024-04-19T14:24:55.996Z,1.98
2024-04-19T14:27:58.971Z,2.70
2024-04-19T14:31:01.871Z,1.57
2024-04-19T14:34:04.666Z,1.33
2024-04-19T14:37:07.574Z,1.98
2024-04-19T14:40:12.873Z,1.67
2024-04-19T14:43:16.105Z,1.95
2024-04-19T14:46:19.375Z,1.50
2024-04-19T14:49:22.569Z,1.63
2024-04-19T14:52:25.352Z,2.03
2024-04-19T14:55:28.135Z,1.92
2024-04-19T14:58:30.777Z,2.10
2024-04-19T15:01:33.536Z,5.10
2024-04-19T15:04:36.482Z,5.57
2024-04-19T15:07:39.452Z,1.00
2024-04-19T15:10:42.073Z,3.55
2024-04-19T15:13:46.694Z,2.40
2024-04-19T15:16:49.958Z,2.90
2024-04-19T15:19:52.991Z,10.67
2024-04-19T15:22:58.762Z,2.05
2024-04-19T15:26:01.523Z,2.00
2024-04-19T15:29:04.270Z,4.45
2024-04-19T15:32:09.241Z,3.77
2024-04-19T15:35:14.297Z,2.80
2024-04-19T15:38:17.240Z,2.08
2024-04-19T15:41:25.447Z,3.40
2024-04-19T15:44:28.381Z,2.40
2024-04-19T15:47:31.270Z,3.67
2024-04-19T15:50:34.746Z,2.23
2024-04-19T15:53:37.399Z,2.88
2024-04-19T15:56:40.061Z,3.63
2024-04-19T15:59:42.688Z,2.83
2024-04-19T16:02:45.434Z,1.20
2024-04-19T16:05:48.070Z,1.57
2024-04-19T16:08:50.743Z,1.90
2024-04-19T16:11:53.698Z,1.55
2024-04-19T16:14:59.035Z,3.17
2024-04-19T16:18:03.187Z,0.83
2024-04-19T16:21:06.004Z,1.50
2024-04-19T16:24:08.936Z,1.25
2024-04-19T16:27:12.032Z,1.15
2024-04-19T16:30:15.599Z,2.53
2024-04-19T16:33:18.339Z,0.90
2024-04-19T16:36:21.211Z,1.53
2024-04-19T16:39:23.988Z,2.88
2024-04-19T16:42:29.421Z,2.40
2024-04-19T16:45:32.268Z,1.35
2024-04-19T16:48:35.009Z,1.50
2024-04-19T16:51:38.211Z,1.30
2024-04-19T16:54:44.961Z,1.80
2024-04-19T16:57:47.736Z,2.15
2024-04-19T17:00:50.481Z,2.30
2024-04-19T17:03:54.509Z,2.17
2024-04-19T17:06:58.666Z,1.77
2024-04-19T17:10:01.531Z,2.10
2024-04-19T17:13:05.064Z,2.00
2024-04-19T17:16:08.182Z,2.03
2024-04-19T17:19:11.003Z,2.57
2024-04-19T17:22:13.796Z,2.20
2024-04-19T17:25:16.437Z,4.78
2024-04-19T17:28:20.317Z,2.35
2024-04-19T17:31:23.555Z,2.88
2024-04-19T17:34:26.879Z,3.93
2024-04-19T17:37:32.122Z,2.03
2024-04-19T17:40:36.207Z,2.83
2024-04-19T17:43:39.872Z,3.50
2024-04-19T17:46:42.543Z,4.07
2024-04-19T17:49:45.358Z,5.40
2024-04-19T17:52:49.165Z,4.17
2024-04-19T17:55:52.078Z,5.22
2024-04-19T17:58:54.787Z,6.57
2024-04-19T18:01:57.647Z,5.15
2024-04-19T18:05:00.777Z,3.60
2024-04-19T18:08:03.507Z,10.27
2024-04-19T18:11:07.150Z,6.45
2024-04-19T18:14:10.393Z,8.63
2024-04-19T18:17:13.627Z,5.88
2024-04-19T18:20:16.498Z,8.03
2024-04-19T18:23:22.621Z,4.57
2024-04-19T18:26:25.585Z,8.00
2024-04-19T18:29:30.003Z,8.80
2024-04-19T18:32:33.012Z,8.35
2024-04-19T18:35:35.890Z,5.93
2024-04-19T18:38:38.547Z,7.33
2024-04-19T18:41:41.859Z,5.10
2024-04-19T18:44:45.429Z,6.07
2024-04-19T18:47:48.122Z,5.07
2024-04-19T18:50:51.068Z,5.13
2024-04-19T18:53:57.974Z,7.27
2024-04-19T18:57:02.672Z,8.90
2024-04-19T19:00:25.862Z,7.63
2024-04-19T19:03:48.547Z,7.13
2024-04-19T19:07:14.167Z,6.93
2024-04-19T19:10:37.767Z,7.70
2024-04-19T19:13:43.050Z,13.32
2024-04-19T19:16:46.035Z,9.63
2024-04-19T19:19:48.922Z,10.00
2024-04-19T19:22:52.193Z,9.47
2024-04-19T19:25:55.255Z,10.27
2024-04-19T19:28:58.172Z,8.23
2024-04-19T19:32:00.846Z,6.45
2024-04-19T19:35:05.562Z,7.40
2024-04-19T19:38:08.660Z,6.57
2024-04-19T19:41:12.414Z,7.60
2024-04-19T19:44:15.093Z,10.13
2024-04-19T19:47:17.746Z,8.63
2024-04-19T19:50:20.306Z,11.10
2024-04-19T19:53:23.199Z,8.83
2024-04-19T19:56:25.754Z,10.30
2024-04-19T19:59:47.082Z,9.38
2024-04-19T20:03:08.087Z,7.72
2024-04-19T20:06:10.743Z,11.32
2024-04-19T20:09:15.635Z,12.47
2024-04-19T20:12:19.810Z,13.07
2024-04-19T20:15:25.178Z,9.20
2024-04-19T20:18:29.061Z,10.60
2024-04-19T20:21:32.100Z,13.88
2024-04-19T20:24:34.768Z,9.47
2024-04-19T20:27:38.304Z,11.68
2024-04-19T20:30:42.633Z,12.93
2024-04-19T20:33:45.584Z,16.83
2024-04-19T20:36:48.296Z,10.38
2024-04-19T20:39:51.408Z,10.10
2024-04-19T20:43:06.567Z,10.52
2024-04-19T20:46:17.792Z,14.10
2024-04-19T20:49:20.499Z,13.07
2024-04-19T20:52:23.153Z,15.83
2024-04-19T20:55:26.087Z,20.27
2024-04-19T20:58:29.262Z,21.20
2024-04-19T21:01:32.247Z,13.27
2024-04-19T21:04:36.931Z,20.05
2024-04-19T21:07:54.570Z,19.30
2024-04-19T21:10:57.389Z,15.77
2024-04-19T21:14:00.037Z,16.13
2024-04-19T21:17:02.697Z,14.85
2024-04-19T21:20:06.333Z,18.50
2024-04-19T21:23:08.900Z,17.57
2024-04-19T21:26:11.526Z,25.67
2024-04-19T21:29:14.197Z,21.75
2024-04-19T21:32:16.871Z,22.33
2024-04-19T21:35:19.642Z,17.83
2024-04-19T21:38:22.326Z,22.43
2024-04-19T21:41:24.939Z,16.42
2024-04-19T21:44:27.537Z,22.20
2024-04-19T21:47:30.443Z,16.52
2024-04-19T21:50:33.203Z,18.63
2024-04-19T21:53:35.775Z,14.73
2024-04-19T21:56:38.386Z,20.00
2024-04-19T21:59:41.161Z,24.45
2024-04-19T22:02:43.793Z,21.75
2024-04-19T22:05:46.561Z,22.70
2024-04-19T22:08:49.496Z,21.10
2024-04-19T22:11:52.130Z,24.02
2024-04-19T22:14:57.914Z,26.02
2024-04-19T22:18:00.623Z,22.60
2024-04-19T22:21:09.670Z,32.15
2024-04-19T22:24:12.402Z,33.10
2024-04-19T22:27:15.561Z,24.38
2024-04-19T22:30:18.334Z,18.60
2024-04-19T22:33:20.972Z,18.23
2024-04-19T22:36:24.466Z,20.27
2024-04-19T22:39:27.996Z,14.98
2024-04-19T22:42:30.674Z,20.70
2024-04-19T22:45:39.492Z,17.97
2024-04-19T22:48:42.201Z,25.95
2024-04-19T22:51:44.972Z,23.17
2024-04-19T22:54:47.848Z,19.30
2024-04-19T22:57:50.538Z,20.00
2024-04-19T23:00:53.165Z,21.10
2024-04-19T23:03:58.393Z,21.60
2024-04-19T23:07:02.702Z,18.97
2024-04-19T23:10:05.563Z,19.87
2024-04-19T23:13:08.233Z,16.38
2024-04-19T23:16:12.612Z,17.95
2024-04-19T23:19:15.290Z,17.00
2024-04-19T23:22:18.253Z,20.87
2024-04-19T23:25:20.872Z,19.80
2024-04-19T23:28:23.467Z,13.68
2024-04-19T23:31:26.108Z,17.15
2024-04-19T23:34:28.705Z,14.40
2024-04-19T23:37:31.330Z,12.70
2024-04-19T23:40:33.958Z,13.55
2024-04-19T23:43:36.596Z,13.10
2024-04-19T23:46:39.237Z,14.73
2024-04-19T23:49:41.844Z,12.90
2024-04-19T23:52:44.458Z,12.33
2024-04-19T23:55:47.162Z,12.73
2024-04-19T23:58:50.472Z,11.75
